Time;durP1;ratioP1;P1;durP2;ratioP2;P2;SDS_P1;SDS_P2;PMS_P1;PMS_P2;Temp;Humidity;BMP_temperature;BMP_pressure;BME280_temperature;BME280_humidity;BME280_pressure;Samples;Min_cycle;Max_cycle;Signal;HPM_P1;HPM_P2
2023/10/30 00:02:20;;;;;;;;;;;23.20;51.40;;;;;;5114089;28;20368;-54
2023/10/30 00:04:48;;;;;;;;;;;23.20;51.50;;;;;;5112275;28;19928;-54
2023/10/30 00:07:17;;;;;;;;;;;23.20;51.50;;;;;;5114048;28;19924;-54
2023/10/30 00:09:44;;;;;;;;;;;23.10;51.50;;;;;;5113745;28;20356;-50
2023/10/30 00:12:11;;;;;;;;;;;23.10;51.50;;;;;;5112307;28;19971;-55
2023/10/30 00:14:38;;;;;;;;;;;23.10;51.50;;;;;;5113684;28;20406;-52
2023/10/30 00:17:05;;;;;;;;;;;23.10;51.50;;;;;;5113807;28;19975;-56
2023/10/30 00:19:32;;;;;;;;;;;23.10;51.60;;;;;;5113797;28;19963;-49
2023/10/30 00:21:59;;;;;;;;;;;23.10;51.60;;;;;;5113840;28;19979;-51
2023/10/30 00:24:29;;;;;;;;;;;23.10;51.60;;;;;;5113744;28;20387;-53
2023/10/30 00:26:56;;;;;;;;;;;23.10;51.60;;;;;;5113482;28;19924;-53
2023/10/30 00:29:23;;;;;;;;;;;23.10;51.60;;;;;;5113616;28;19924;-54
2023/10/30 00:31:50;;;;;;;;;;;23.10;51.60;;;;;;5113734;28;20291;-53
2023/10/30 00:34:17;;;;;;;;;;;23.10;51.50;;;;;;5112284;28;20014;-49
2023/10/30 00:36:44;;;;;;;;;;;23.20;51.60;;;;;;5113594;28;19924;-50
2023/10/30 00:39:11;;;;;;;;;;;23.20;51.50;;;;;;5112642;28;20408;-53
2023/10/30 00:41:38;;;;;;;;;;;23.20;51.50;;;;;;5113239;28;20026;-53
2023/10/30 00:44:06;;;;;;;;;;;23.20;51.50;;;;;;5113327;28;19982;-53
2023/10/30 00:46:33;;;;;;;;;;;23.10;51.50;;;;;;5113509;28;19924;-50
2023/10/30 00:49:00;;;;;;;;;;;23.20;51.50;;;;;;5113493;28;19923;-55
2023/10/30 00:51:27;;;;;;;;;;;23.20;51.50;;;;;;5113219;28;19959;-53
2023/10/30 00:53:54;;;;;;;;;;;23.20;51.50;;;;;;5113576;28;19931;-52
2023/10/30 00:56:21;;;;;;;;;;;23.10;51.50;;;;;;5113345;28;20022;-49
2023/10/30 00:58:48;;;;;;;;;;;23.10;51.50;;;;;;5113316;28;19924;-52
2023/10/30 01:01:17;;;;;;;;;;;23.10;51.50;;;;;;5115819;28;19967;-53
2023/10/30 01:03:44;;;;;;;;;;;23.10;51.50;;;;;;5096685;28;20363;-52
2023/10/30 01:06:11;;;;;;;;;;;23.10;51.50;;;;;;5096683;28;19924;-49
2023/10/30 01:08:38;;;;;;;;;;;23.20;51.60;;;;;;5096565;28;19930;-52
2023/10/30 01:11:05;;;;;;;;;;;23.10;51.50;;;;;;5096485;28;20440;-48
2023/10/30 01:13:32;;;;;;;;;;;23.10;51.50;;;;;;5096272;28;20376;-54
2023/10/30 01:15:59;;;;;;;;;;;23.10;51.50;;;;;;5096437;28;20392;-53
2023/10/30 01:18:26;;;;;;;;;;;23.10;51.60;;;;;;5095972;28;19925;-51
2023/10/30 01:20:53;;;;;;;;;;;23.10;51.60;;;;;;5096631;28;19930;-51
2023/10/30 01:23:21;;;;;;;;;;;23.10;51.60;;;;;;5096180;28;20439;-53
2023/10/30 01:25:49;;;;;;;;;;;23.10;51.60;;;;;;5096343;28;19997;-49
2023/10/30 01:28:16;;;;;;;;;;;23.10;51.60;;;;;;5094858;28;19978;-52
2023/10/30 01:30:43;;;;;;;;;;;23.10;51.70;;;;;;5096490;28;19924;-50
2023/10/30 01:33:10;;;;;;;;;;;23.10;51.70;;;;;;5096327;28;20372;-50
2023/10/30 01:35:37;;;;;;;;;;;23.10;51.70;;;;;;5095948;28;19932;-48
2023/10/30 01:38:04;;;;;;;;;;;23.10;51.70;;;;;;5095953;28;19954;-50
2023/10/30 01:40:31;;;;;;;;;;;23.10;51.70;;;;;;5095577;28;19924;-49
2023/10/30 01:43:00;;;;;;;;;;;23.10;51.80;;;;;;5096058;28;19973;-49
2023/10/30 01:45:28;;;;;;;;;;;23.10;51.80;;;;;;5095959;28;20015;-49
2023/10/30 01:47:55;;;;;;;;;;;23.10;51.80;;;;;;5095914;28;19931;-52
2023/10/30 01:50:23;;;;;;;;;;;23.10;51.80;;;;;;5096081;28;20043;-49
2023/10/30 01:52:50;;;;;;;;;;;23.10;51.80;;;;;;5095692;28;19932;-49
2023/10/30 01:55:17;;;;;;;;;;;23.10;51.70;;;;;;5096002;28;19955;-55
2023/10/30 01:57:45;;;;;;;;;;;23.10;51.70;;;;;;5095758;28;20318;-56
2023/10/30 02:00:12;;;;;;;;;;;23.10;51.70;;;;;;5095763;28;19989;-57
2023/10/30 02:02:39;;;;;;;;;;;23.10;52.20;;;;;;5095662;28;20352;-55
2023/10/30 02:05:10;;;;;;;;;;;23.10;51.60;;;;;;5095635;28;19932;-55
2023/10/30 02:07:37;;;;;;;;;;;23.10;51.60;;;;;;5095709;28;19928;-53
2023/10/30 02:10:04;;;;;;;;;;;23.10;51.60;;;;;;5095682;28;19924;-52
2023/10/30 02:12:32;;;;;;;;;;;23.10;51.70;;;;;;5110163;28;20132;-53
2023/10/30 02:14:59;;;;;;;;;;;23.10;51.60;;;;;;5095192;28;19993;-51
2023/10/30 02:17:26;;;;;;;;;;;23.10;51.70;;;;;;5095704;28;20311;-55
2023/10/30 02:19:53;;;;;;;;;;;23.10;51.70;;;;;;5095223;28;19931;-49
2023/10/30 02:22:20;;;;;;;;;;;23.10;51.70;;;;;;5095447;28;19924;-50
2023/10/30 02:24:47;;;;;;;;;;;23.10;51.70;;;;;;5094851;28;20383;-53
2023/10/30 02:27:14;;;;;;;;;;;23.10;51.70;;;;;;5095031;28;20019;-50
2023/10/30 02:29:41;;;;;;;;;;;23.10;51.70;;;;;;5094792;28;19931;-50
2023/10/30 02:32:08;;;;;;;;;;;23.10;51.70;;;;;;5095269;28;19924;-50
2023/10/30 02:34:35;;;;;;;;;;;23.10;51.70;;;;;;5110490;28;19924;-52
2023/10/30 02:37:02;;;;;;;;;;;23.10;51.70;;;;;;5115629;28;19974;-52
2023/10/30 02:39:32;;;;;;;;;;;23.10;51.80;;;;;;5114281;28;19946;-51
2023/10/30 02:42:01;;;;;;;;;;;23.10;52.30;;;;;;5115049;28;19934;-49
2023/10/30 02:44:29;;;;;;;;;;;23.10;51.80;;;;;;5114902;28;19924;-52
2023/10/30 02:46:56;;;;;;;;;;;23.00;51.70;;;;;;5115498;28;19923;-50
2023/10/30 02:49:23;;;;;;;;;;;23.00;51.80;;;;;;5115386;28;19931;-50
2023/10/30 02:51:50;;;;;;;;;;;23.00;51.70;;;;;;5115227;28;20231;-48
2023/10/30 02:54:17;;;;;;;;;;;23.00;51.80;;;;;;5114955;28;20417;-54
2023/10/30 02:56:45;;;;;;;;;;;23.00;51.80;;;;;;5115251;28;19932;-53
2023/10/30 02:59:12;;;;;;;;;;;23.00;51.80;;;;;;5114924;28;19974;-53
2023/10/30 03:01:41;;;;;;;;;;;23.00;51.90;;;;;;5114841;28;19927;-52
2023/10/30 03:04:09;;;;;;;;;;;23.00;51.90;;;;;;5115049;28;20378;-51
2023/10/30 03:06:36;;;;;;;;;;;23.00;51.90;;;;;;5114761;28;19965;-54
2023/10/30 03:09:03;;;;;;;;;;;23.00;51.90;;;;;;5114819;28;19959;-51
2023/10/30 03:11:30;;;;;;;;;;;23.00;51.90;;;;;;5114948;28;19931;-51
2023/10/30 03:13:57;;;;;;;;;;;23.00;51.90;;;;;;5114171;28;20354;-54
2023/10/30 03:16:24;;;;;;;;;;;23.00;51.90;;;;;;5115035;28;19923;-53
2023/10/30 03:18:51;;;;;;;;;;;23.00;51.90;;;;;;5114416;28;19930;-54
2023/10/30 03:21:19;;;;;;;;;;;23.10;51.90;;;;;;5114803;28;19965;-52
2023/10/30 03:23:46;;;;;;;;;;;23.00;51.90;;;;;;5113931;28;20034;-53
2023/10/30 03:26:13;;;;;;;;;;;23.10;51.80;;;;;;5114718;28;19924;-53
2023/10/30 03:28:40;;;;;;;;;;;23.10;51.80;;;;;;5114437;28;20356;-53
2023/10/30 03:31:07;;;;;;;;;;;23.10;51.80;;;;;;5114494;28;20014;-51
2023/10/30 03:33:34;;;;;;;;;;;23.10;51.80;;;;;;5114216;28;20010;-49
2023/10/30 03:36:02;;;;;;;;;;;23.10;51.80;;;;;;5112857;28;19930;-54
2023/10/30 03:38:29;;;;;;;;;;;23.00;51.70;;;;;;5114276;28;19974;-54
2023/10/30 03:40:56;;;;;;;;;;;23.00;51.80;;;;;;5113992;28;19953;-52
2023/10/30 03:43:23;;;;;;;;;;;23.10;51.80;;;;;;5113949;28;20030;-51
2023/10/30 03:45:50;;;;;;;;;;;23.00;51.80;;;;;;5113897;28;20034;-50
2023/10/30 03:48:17;;;;;;;;;;;23.00;51.80;;;;;;5112450;28;19966;-54
2023/10/30 03:50:47;;;;;;;;;;;23.00;51.80;;;;;;5114377;28;20292;-53
2023/10/30 03:53:14;;;;;;;;;;;23.00;51.80;;;;;;5114235;28;19924;-51
2023/10/30 03:55:41;;;;;;;;;;;23.00;51.90;;;;;;5113774;28;19928;-50
2023/10/30 03:58:08;;;;;;;;;;;23.00;51.90;;;;;;5114208;28;19924;-54
2023/10/30 04:00:35;;;;;;;;;;;23.00;51.90;;;;;;5113919;28;19924;-50
2023/10/30 04:03:02;;;;;;;;;;;23.00;51.90;;;;;;5114051;28;19924;-54
2023/10/30 04:05:29;;;;;;;;;;;23.00;51.90;;;;;;5113951;28;20286;-51
2023/10/30 04:07:56;;;;;;;;;;;23.00;51.90;;;;;;5114020;28;19984;-55
2023/10/30 04:10:23;;;;;;;;;;;23.00;51.90;;;;;;5113367;28;19928;-54
2023/10/30 04:12:50;;;;;;;;;;;23.00;51.90;;;;;;5113845;28;19965;-53
2023/10/30 04:15:18;;;;;;;;;;;23.00;51.90;;;;;;5108916;28;19972;-52
2023/10/30 04:17:45;;;;;;;;;;;23.00;51.90;;;;;;5093403;28;19928;-52
2023/10/30 04:20:12;;;;;;;;;;;23.00;51.90;;;;;;5093517;28;19924;-55
2023/10/30 04:22:39;;;;;;;;;;;23.00;51.90;;;;;;5093076;28;20019;-55
2023/10/30 04:25:07;;;;;;;;;;;23.00;52.00;;;;;;5093650;28;19924;-55
2023/10/30 04:27:34;;;;;;;;;;;23.00;52.00;;;;;;5093165;28;20380;-54
2023/10/30 04:30:02;;;;;;;;;;;23.00;52.00;;;;;;5093199;28;19958;-50
2023/10/30 04:32:29;;;;;;;;;;;23.00;52.00;;;;;;5093645;28;19931;-51
2023/10/30 04:34:56;;;;;;;;;;;23.00;52.10;;;;;;5095050;28;19931;-54
2023/10/30 04:37:23;;;;;;;;;;;23.00;52.00;;;;;;5096994;28;19928;-55
2023/10/30 04:39:50;;;;;;;;;;;23.00;51.90;;;;;;5096857;28;19931;-53
2023/10/30 04:42:17;;;;;;;;;;;23.00;51.70;;;;;;5097395;28;19970;-50
2023/10/30 04:44:44;;;;;;;;;;;23.00;51.40;;;;;;5097035;28;19969;-53
2023/10/30 04:47:11;;;;;;;;;;;23.00;51.10;;;;;;5096984;28;19924;-50
2023/10/30 04:49:39;;;;;;;;;;;23.00;50.90;;;;;;5096842;28;20403;-54
2023/10/30 04:52:06;;;;;;;;;;;23.00;50.80;;;;;;5097006;28;20384;-53
2023/10/30 04:54:33;;;;;;;;;;;23.00;50.70;;;;;;5095320;28;19931;-51
2023/10/30 04:57:00;;;;;;;;;;;23.00;50.50;;;;;;5096909;28;20390;-54
2023/10/30 04:59:26;;;;;;;;;;;23.00;50.50;;;;;;5096775;28;19970;-54
2023/10/30 05:01:53;;;;;;;;;;;23.00;50.30;;;;;;5095308;28;19924;-53
2023/10/30 05:04:20;;;;;;;;;;;23.00;50.30;;;;;;5096433;28;19975;-53
2023/10/30 05:06:48;;;;;;;;;;;23.00;50.20;;;;;;5100910;28;20390;-51
2023/10/30 05:09:15;;;;;;;;;;;23.00;50.20;;;;;;5116677;28;19923;-51
2023/10/30 05:11:42;;;;;;;;;;;23.00;50.10;;;;;;5116493;28;19923;-53
2023/10/30 05:14:09;;;;;;;;;;;23.00;50.00;;;;;;5116888;28;19928;-52
2023/10/30 05:16:36;;;;;;;;;;;23.00;50.00;;;;;;5116915;28;19924;-54
2023/10/30 05:19:03;;;;;;;;;;;23.00;49.90;;;;;;5117094;28;19931;-51
2023/10/30 05:21:31;;;;;;;;;;;23.00;49.80;;;;;;5116733;28;19923;-54
2023/10/30 05:23:58;;;;;;;;;;;23.00;49.80;;;;;;5116849;28;19927;-52
2023/10/30 05:26:25;;;;;;;;;;;23.00;49.70;;;;;;5116637;28;19924;-53
2023/10/30 05:28:52;;;;;;;;;;;23.00;49.60;;;;;;5116258;28;19923;-51
2023/10/30 05:31:19;;;;;;;;;;;23.00;49.60;;;;;;5110700;28;20040;-51
2023/10/30 05:33:46;;;;;;;;;;;23.00;49.50;;;;;;5106121;28;19924;-53
2023/10/30 05:36:13;;;;;;;;;;;23.00;49.50;;;;;;5107098;28;19929;-54
2023/10/30 05:38:40;;;;;;;;;;;23.00;49.40;;;;;;5109432;28;19931;-53
2023/10/30 05:41:08;;;;;;;;;;;23.00;49.40;;;;;;5115768;28;19931;-53
2023/10/30 05:43:35;;;;;;;;;;;23.00;49.40;;;;;;5103088;28;20267;-52
2023/10/30 05:46:02;;;;;;;;;;;23.00;49.40;;;;;;5116408;28;19993;-55
2023/10/30 05:48:29;;;;;;;;;;;23.00;49.30;;;;;;5108247;28;20396;-54
2023/10/30 05:50:56;;;;;;;;;;;23.00;49.30;;;;;;5095792;28;19924;-50
2023/10/30 05:53:23;;;;;;;;;;;23.00;49.20;;;;;;5095988;28;20039;-51
2023/10/30 05:55:50;;;;;;;;;;;23.00;49.40;;;;;;5099155;28;19928;-54
2023/10/30 05:58:17;;;;;;;;;;;23.00;49.10;;;;;;5099837;28;20118;-50
2023/10/30 06:00:44;;;;;;;;;;;23.00;49.00;;;;;;5111683;27;19931;-50
2023/10/30 06:03:13;;;;;;;;;;;23.00;49.00;;;;;;5114716;28;19992;-53
2023/10/30 06:05:40;;;;;;;;;;;23.00;48.90;;;;;;5113999;28;19931;-54
2023/10/30 06:08:07;;;;;;;;;;;23.00;48.80;;;;;;5115245;28;20367;-55
2023/10/30 06:10:34;;;;;;;;;;;23.00;48.70;;;;;;5114796;28;19967;-51
2023/10/30 06:13:01;;;;;;;;;;;23.10;48.70;;;;;;5114583;28;20380;-49
2023/10/30 06:15:28;;;;;;;;;;;23.10;48.80;;;;;;5114528;28;20307;-55
2023/10/30 06:17:56;;;;;;;;;;;23.10;48.90;;;;;;5097655;28;20018;-57
2023/10/30 06:20:23;;;;;;;;;;;23.10;48.90;;;;;;5101251;28;20321;-50
2023/10/30 06:22:50;;;;;;;;;;;23.10;48.90;;;;;;5109341;27;20402;-56
2023/10/30 06:25:17;;;;;;;;;;;23.10;49.00;;;;;;5108151;27;20035;-53
2023/10/30 06:27:44;;;;;;;;;;;23.20;49.30;;;;;;5107829;27;19977;-55
2023/10/30 06:30:13;;;;;;;;;;;23.20;49.50;;;;;;5105425;28;20011;-54
2023/10/30 06:32:40;;;;;;;;;;;23.20;49.60;;;;;;5103929;28;19932;-53
2023/10/30 06:35:08;;;;;;;;;;;23.30;49.70;;;;;;5104598;28;20016;-58
2023/10/30 06:37:36;;;;;;;;;;;23.30;49.70;;;;;;5105002;27;19947;-57
2023/10/30 06:40:03;;;;;;;;;;;23.30;49.60;;;;;;5099393;28;20015;-57
2023/10/30 06:42:31;;;;;;;;;;;23.40;49.30;;;;;;5102368;28;19934;-58
2023/10/30 06:44:58;;;;;;;;;;;23.40;48.90;;;;;;5106785;27;19928;-58
2023/10/30 06:47:26;;;;;;;;;;;23.40;48.80;;;;;;5104319;28;19981;-57
2023/10/30 06:49:55;;;;;;;;;;;23.40;48.50;;;;;;5104372;27;19936;-57
2023/10/30 06:52:22;;;;;;;;;;;23.50;48.50;;;;;;5102860;27;20421;-57
2023/10/30 06:54:49;;;;;;;;;;;23.50;48.40;;;;;;5105461;27;19923;-58
2023/10/30 06:57:16;;;;;;;;;;;23.50;48.50;;;;;;5121899;27;19928;-56
2023/10/30 06:59:43;;;;;;;;;;;23.60;48.60;;;;;;5106290;28;19935;-58
2023/10/30 07:02:11;;;;;;;;;;;23.60;48.70;;;;;;5103849;27;19928;-57
2023/10/30 07:04:39;;;;;;;;;;;23.60;48.80;;;;;;5104320;28;19931;-56
2023/10/30 07:07:06;;;;;;;;;;;23.60;48.60;;;;;;5104938;28;20039;-55
2023/10/30 07:09:33;;;;;;;;;;;23.70;48.40;;;;;;5105736;28;19974;-56
2023/10/30 07:12:02;;;;;;;;;;;23.70;48.20;;;;;;5105192;27;19923;-57
2023/10/30 07:14:29;;;;;;;;;;;23.70;48.10;;;;;;5107195;28;19924;-56
2023/10/30 07:16:56;;;;;;;;;;;23.70;48.00;;;;;;5104949;28;20040;-56
2023/10/30 07:19:31;;;;;;;;;;;23.80;47.80;;;;;;5107561;28;20395;-58
2023/10/30 07:21:58;;;;;;;;;;;23.80;47.70;;;;;;5106630;28;19924;-58
2023/10/30 07:24:25;;;;;;;;;;;23.90;47.60;;;;;;5107707;28;20055;-55
2023/10/30 07:26:52;;;;;;;;;;;23.90;47.40;;;;;;5106412;27;19967;-55
2023/10/30 07:29:19;;;;;;;;;;;23.90;47.30;;;;;;5105445;27;19924;-56
2023/10/30 07:31:46;;;;;;;;;;;23.90;47.10;;;;;;5102917;28;19932;-56
2023/10/30 07:34:14;;;;;;;;;;;24.00;47.10;;;;;;5109550;28;19984;-56
2023/10/30 07:36:42;;;;;;;;;;;24.00;46.90;;;;;;5106264;28;19924;-57
2023/10/30 07:39:09;;;;;;;;;;;24.00;46.90;;;;;;5104333;28;20023;-57
2023/10/30 07:41:37;;;;;;;;;;;24.10;46.80;;;;;;5108786;27;19924;-57
2023/10/30 07:44:05;;;;;;;;;;;24.10;46.80;;;;;;5106452;28;19924;-57
2023/10/30 07:46:32;;;;;;;;;;;24.10;46.60;;;;;;5109123;28;19931;-57
2023/10/30 07:49:03;;;;;;;;;;;24.10;46.60;;;;;;5105841;28;19927;-57
2023/10/30 07:51:31;;;;;;;;;;;24.10;46.60;;;;;;5102754;28;19931;-57
2023/10/30 07:53:58;;;;;;;;;;;24.10;46.50;;;;;;5108406;28;19947;-57
2023/10/30 07:56:25;;;;;;;;;;;24.20;46.50;;;;;;5103949;28;19958;-57
2023/10/30 07:58:52;;;;;;;;;;;24.20;46.40;;;;;;5106401;28;19931;-57
2023/10/30 08:01:21;;;;;;;;;;;24.20;46.30;;;;;;5103650;28;19923;-56
2023/10/30 08:03:48;;;;;;;;;;;24.20;46.20;;;;;;5104371;28;20011;-56
2023/10/30 08:06:15;;;;;;;;;;;24.30;46.20;;;;;;5105015;28;19976;-56
2023/10/30 08:08:42;;;;;;;;;;;24.30;46.10;;;;;;5103003;28;19931;-55
2023/10/30 08:11:09;;;;;;;;;;;24.30;46.10;;;;;;5106527;27;19928;-55
2023/10/30 08:13:37;;;;;;;;;;;24.30;45.90;;;;;;5107550;28;19928;-57
2023/10/30 08:16:05;;;;;;;;;;;24.40;46.00;;;;;;5107710;28;19924;-57
2023/10/30 08:18:32;;;;;;;;;;;24.40;45.90;;;;;;5109420;28;20272;-57
2023/10/30 08:20:59;;;;;;;;;;;24.40;45.80;;;;;;5110043;28;19931;-57
2023/10/30 08:23:36;;;;;;;;;;;24.50;45.80;;;;;;5110047;28;19963;-57
2023/10/30 08:26:06;;;;;;;;;;;24.50;45.70;;;;;;5123975;27;19938;-54
2023/10/30 08:28:33;;;;;;;;;;;24.50;45.70;;;;;;5103407;28;19980;-55
2023/10/30 08:31:00;;;;;;;;;;;24.50;45.80;;;;;;5108156;28;19928;-57
2023/10/30 08:33:27;;;;;;;;;;;24.50;45.60;;;;;;5105618;28;20432;-58
2023/10/30 08:35:54;;;;;;;;;;;24.60;45.70;;;;;;5103154;27;19938;-56
2023/10/30 08:38:21;;;;;;;;;;;24.60;45.70;;;;;;5109937;28;19971;-58
2023/10/30 08:40:48;;;;;;;;;;;24.60;45.70;;;;;;5109716;27;19928;-58
2023/10/30 08:43:15;;;;;;;;;;;24.60;45.70;;;;;;5107670;27;20019;-58
2023/10/30 08:45:43;;;;;;;;;;;24.70;45.70;;;;;;5110267;28;19924;-58
2023/10/30 08:48:13;;;;;;;;;;;24.70;45.70;;;;;;5108317;28;19932;-58
2023/10/30 08:50:45;;;;;;;;;;;24.70;45.70;;;;;;5107258;28;19966;-59
2023/10/30 08:53:12;;;;;;;;;;;24.70;45.70;;;;;;5106315;28;19951;-55
2023/10/30 08:55:40;;;;;;;;;;;24.80;45.60;;;;;;5105050;28;19932;-57
2023/10/30 08:58:07;;;;;;;;;;;24.80;45.60;;;;;;5103868;28;19936;-58
2023/10/30 09:00:35;;;;;;;;;;;24.80;45.40;;;;;;5097635;28;20380;-58
2023/10/30 09:03:03;;;;;;;;;;;24.80;45.30;;;;;;5096342;28;19977;-58
2023/10/30 09:05:30;;;;;;;;;;;24.90;45.90;;;;;;5086941;28;20398;-56
2023/10/30 09:07:59;;;;;;;;;;;24.90;45.30;;;;;;5105613;27;19927;-58
2023/10/30 09:10:30;;;;;;;;;;;24.90;45.20;;;;;;5106966;28;19978;-59
2023/10/30 09:12:57;;;;;;;;;;;24.90;45.00;;;;;;5110446;28;19924;-58
2023/10/30 09:15:24;;;;;;;;;;;24.90;45.00;;;;;;5110334;28;20499;-59
2023/10/30 09:17:52;;;;;;;;;;;24.90;44.90;;;;;;5109493;27;20341;-58
2023/10/30 09:20:20;;;;;;;;;;;24.90;44.90;;;;;;5105792;27;20375;-58
2023/10/30 09:22:47;;;;;;;;;;;25.00;44.90;;;;;;5110522;28;19961;-56
2023/10/30 09:25:14;;;;;;;;;;;25.00;44.80;;;;;;5108214;27;19932;-57
2023/10/30 09:27:41;;;;;;;;;;;25.00;44.80;;;;;;5108752;27;19938;-55
2023/10/30 09:30:09;;;;;;;;;;;25.00;44.70;;;;;;5109846;27;19935;-59
2023/10/30 09:32:38;;;;;;;;;;;25.10;44.70;;;;;;5110671;28;19924;-58
2023/10/30 09:35:05;;;;;;;;;;;25.10;44.70;;;;;;5108394;27;19936;-58
2023/10/30 09:37:32;;;;;;;;;;;25.10;44.70;;;;;;5124006;27;19924;-58
2023/10/30 09:40:00;;;;;;;;;;;25.10;44.70;;;;;;5108617;28;20400;-60
2023/10/30 09:42:27;;;;;;;;;;;25.10;44.70;;;;;;5106302;28;19977;-56
2023/10/30 09:44:55;;;;;;;;;;;25.10;44.70;;;;;;5124040;27;19944;-59
2023/10/30 09:47:24;;;;;;;;;;;25.10;44.70;;;;;;5107960;28;20256;-56
2023/10/30 09:49:51;;;;;;;;;;;25.10;44.60;;;;;;5110928;28;20379;-57
2023/10/30 09:52:19;;;;;;;;;;;25.20;44.60;;;;;;5103013;28;19939;-57
2023/10/30 09:54:46;;;;;;;;;;;25.20;45.20;;;;;;5108955;27;20368;-58
2023/10/30 09:57:14;;;;;;;;;;;25.20;44.60;;;;;;5106034;27;19985;-57
2023/10/30 09:59:42;;;;;;;;;;;25.20;44.70;;;;;;5109484;28;19934;-58
2023/10/30 10:02:09;;;;;;;;;;;25.20;44.80;;;;;;5108527;28;19963;-58
2023/10/30 10:04:37;;;;;;;;;;;25.20;44.80;;;;;;5107126;28;19930;-57
2023/10/30 10:07:05;;;;;;;;;;;25.20;44.80;;;;;;5108032;27;19932;-58
2023/10/30 10:09:32;;;;;;;;;;;25.30;44.80;;;;;;5107216;27;19927;-59
2023/10/30 10:11:59;;;;;;;;;;;25.30;44.80;;;;;;5106926;28;20364;-58
2023/10/30 10:14:29;;;;;;;;;;;25.30;44.80;;;;;;5105835;28;19928;-56
2023/10/30 10:16:57;;;;;;;;;;;25.30;44.80;;;;;;5108694;28;19935;-55
2023/10/30 10:19:27;;;;;;;;;;;25.30;44.70;;;;;;5109082;28;19968;-57
2023/10/30 10:21:54;;;;;;;;;;;25.40;44.80;;;;;;5088938;28;19928;-56
2023/10/30 10:24:32;;;;;;;;;;;25.40;44.70;;;;;;5109339;28;19927;-56
2023/10/30 10:27:06;;;;;;;;;;;25.40;44.80;;;;;;5108670;28;19923;-56
2023/10/30 10:29:35;;;;;;;;;;;25.40;44.70;;;;;;5105165;28;20300;-58
2023/10/30 10:32:02;;;;;;;;;;;25.40;44.60;;;;;;5105981;28;20023;-56
2023/10/30 10:34:31;;;;;;;;;;;25.40;44.60;;;;;;5102910;28;19951;-57
2023/10/30 10:36:59;;;;;;;;;;;25.40;44.70;;;;;;5107231;27;19935;-57
2023/10/30 10:39:26;;;;;;;;;;;25.50;44.60;;;;;;5108826;27;19924;-57
2023/10/30 10:41:54;;;;;;;;;;;25.50;44.60;;;;;;5106394;27;19928;-56
2023/10/30 10:44:22;;;;;;;;;;;25.50;44.60;;;;;;5106539;28;19934;-56
2023/10/30 10:46:52;;;;;;;;;;;25.50;44.60;;;;;;5103427;28;19931;-57
2023/10/30 10:49:19;;;;;;;;;;;25.50;44.50;;;;;;5105976;28;19924;-55
2023/10/30 10:51:46;;;;;;;;;;;25.50;44.60;;;;;;5107627;27;20183;-56
2023/10/30 10:54:17;;;;;;;;;;;25.50;44.50;;;;;;5107956;27;19924;-55
2023/10/30 10:56:46;;;;;;;;;;;25.50;44.50;;;;;;5109682;28;20464;-57
2023/10/30 10:59:14;;;;;;;;;;;25.60;44.60;;;;;;5110394;27;19923;-56
2023/10/30 11:01:44;;;;;;;;;;;25.60;44.50;;;;;;5108140;28;19932;-56
2023/10/30 11:04:11;;;;;;;;;;;25.50;44.50;;;;;;5106544;28;19927;-58
2023/10/30 11:06:45;;;;;;;;;;;25.50;44.40;;;;;;5103791;28;19935;-59
2023/10/30 11:11:51;;;;;;;;;;;25.60;44.50;;;;;;5111426;28;19923;-52
2023/10/30 11:14:35;;;;;;;;;;;25.60;44.50;;;;;;5108288;28;19928;-57
2023/10/30 11:17:03;;;;;;;;;;;25.60;44.50;;;;;;5091164;28;19923;-55
2023/10/30 11:19:33;;;;;;;;;;;25.60;44.60;;;;;;5104060;28;20217;-55
2023/10/30 11:22:00;;;;;;;;;;;25.60;44.60;;;;;;5108444;28;19938;-57
2023/10/30 11:24:45;;;;;;;;;;;25.60;44.60;;;;;;5107137;28;19932;-55
2023/10/30 11:27:32;;;;;;;;;;;25.60;44.60;;;;;;5105183;28;20018;-54
2023/10/30 11:30:03;;;;;;;;;;;25.70;44.70;;;;;;5099654;28;19989;-56
2023/10/30 11:32:32;;;;;;;;;;;25.70;44.70;;;;;;5100292;28;20380;-57
2023/10/30 11:35:00;;;;;;;;;;;25.70;44.70;;;;;;5106471;28;19969;-56
2023/10/30 11:37:32;;;;;;;;;;;25.70;44.70;;;;;;5104802;28;19923;-57
2023/10/30 11:40:02;;;;;;;;;;;25.70;44.70;;;;;;5103423;28;19935;-58
2023/10/30 11:42:34;;;;;;;;;;;25.70;44.70;;;;;;5102793;28;19963;-57
2023/10/30 11:45:21;;;;;;;;;;;25.70;44.70;;;;;;5105235;28;19923;-57
2023/10/30 11:47:56;;;;;;;;;;;25.70;44.70;;;;;;5105374;27;19928;-56
2023/10/30 11:50:32;;;;;;;;;;;25.70;44.70;;;;;;5104249;28;19928;-57
2023/10/30 11:53:00;;;;;;;;;;;25.70;44.70;;;;;;5104889;28;19935;-54
2023/10/30 11:55:29;;;;;;;;;;;25.70;44.70;;;;;;5101289;28;20470;-55
2023/10/30 11:57:57;;;;;;;;;;;25.70;44.80;;;;;;5105235;28;21073;-55
2023/10/30 12:00:24;;;;;;;;;;;25.70;44.80;;;;;;5108964;28;19935;-56
2023/10/30 12:02:52;;;;;;;;;;;25.70;44.80;;;;;;5104117;28;19931;-55
2023/10/30 12:05:19;;;;;;;;;;;25.70;44.80;;;;;;5105606;28;20379;-55
2023/10/30 12:07:50;;;;;;;;;;;25.70;44.70;;;;;;5107340;28;19924;-53
2023/10/30 12:10:18;;;;;;;;;;;25.70;44.80;;;;;;5103722;28;19928;-56
2023/10/30 12:12:45;;;;;;;;;;;25.80;44.80;;;;;;5102556;28;19947;-58
2023/10/30 12:15:12;;;;;;;;;;;25.80;44.80;;;;;;5100889;28;20026;-58
2023/10/30 12:17:39;;;;;;;;;;;25.70;44.80;;;;;;5105703;28;19924;-58
2023/10/30 12:20:08;;;;;;;;;;;25.70;44.80;;;;;;5104669;28;20023;-58
2023/10/30 12:22:41;;;;;;;;;;;25.70;44.90;;;;;;5102059;28;19928;-57
2023/10/30 12:25:14;;;;;;;;;;;25.70;44.90;;;;;;5100922;28;19974;-56
2023/10/30 12:27:42;;;;;;;;;;;25.80;45.00;;;;;;5122888;27;19931;-56
2023/10/30 12:30:10;;;;;;;;;;;25.80;45.00;;;;;;5101739;28;19932;-57
2023/10/30 12:32:37;;;;;;;;;;;25.70;44.90;;;;;;5100471;28;19932;-57
2023/10/30 12:35:08;;;;;;;;;;;25.70;44.90;;;;;;5104158;28;20318;-56
2023/10/30 12:37:37;;;;;;;;;;;25.70;45.00;;;;;;5106419;28;19924;-57
2023/10/30 12:40:06;;;;;;;;;;;25.70;45.00;;;;;;5124075;27;19931;-56
2023/10/30 12:42:37;;;;;;;;;;;25.70;45.00;;;;;;5105367;28;20396;-55
2023/10/30 12:45:12;;;;;;;;;;;25.70;45.10;;;;;;5105591;28;19924;-53
2023/10/30 12:47:39;;;;;;;;;;;25.70;45.10;;;;;;5106482;28;19936;-57
2023/10/30 12:50:07;;;;;;;;;;;25.70;45.10;;;;;;5105857;28;19931;-57
2023/10/30 12:52:34;;;;;;;;;;;25.70;45.10;;;;;;5104990;28;19932;-58
2023/10/30 12:55:05;;;;;;;;;;;25.70;45.00;;;;;;5104459;28;20448;-57
2023/10/30 12:57:32;;;;;;;;;;;25.70;45.10;;;;;;5126155;27;20399;-58
2023/10/30 13:00:00;;;;;;;;;;;25.70;45.10;;;;;;5108330;27;19928;-57
2023/10/30 13:02:27;;;;;;;;;;;25.70;45.00;;;;;;5110124;28;20384;-60
2023/10/30 13:04:55;;;;;;;;;;;25.70;45.00;;;;;;5106271;28;20383;-58
2023/10/30 13:07:22;;;;;;;;;;;25.70;45.00;;;;;;5102748;27;20018;-58
2023/10/30 13:09:49;;;;;;;;;;;25.70;45.00;;;;;;5108598;28;19924;-58
2023/10/30 13:12:16;;;;;;;;;;;25.70;45.00;;;;;;5109476;28;20428;-58
2023/10/30 13:14:43;;;;;;;;;;;25.70;44.90;;;;;;5126349;27;19931;-57
2023/10/30 13:17:10;;;;;;;;;;;25.70;45.00;;;;;;5108912;27;20287;-62
2023/10/30 13:19:37;;;;;;;;;;;25.70;44.90;;;;;;5105814;28;19924;-61
2023/10/30 13:22:04;;;;;;;;;;;25.70;45.10;;;;;;5109207;28;20023;-61
2023/10/30 13:24:32;;;;;;;;;;;25.70;45.00;;;;;;5123417;27;19924;-62
2023/10/30 13:26:59;;;;;;;;;;;25.70;45.00;;;;;;5105592;28;20875;-61
2023/10/30 13:29:27;;;;;;;;;;;25.70;45.30;;;;;;5108568;28;20383;-60
2023/10/30 13:31:57;;;;;;;;;;;25.70;45.30;;;;;;5109041;28;20295;-62
2023/10/30 13:34:24;;;;;;;;;;;25.70;45.30;;;;;;5110665;27;20458;-62
2023/10/30 13:36:51;;;;;;;;;;;25.70;45.40;;;;;;5102179;27;19935;-63
2023/10/30 13:39:19;;;;;;;;;;;25.70;45.30;;;;;;5103515;28;19947;-63
2023/10/30 13:41:46;;;;;;;;;;;25.70;45.30;;;;;;5109648;28;19984;-63
2023/10/30 13:44:14;;;;;;;;;;;25.70;45.30;;;;;;5106473;28;19931;-63
2023/10/30 13:46:41;;;;;;;;;;;25.70;45.40;;;;;;5110739;28;20440;-63
2023/10/30 13:49:08;;;;;;;;;;;25.70;45.30;;;;;;5105805;27;19924;-62
2023/10/30 13:51:37;;;;;;;;;;;25.70;45.20;;;;;;5112893;27;19928;-62
2023/10/30 13:54:04;;;;;;;;;;;25.70;45.50;;;;;;5106984;28;20337;-63
2023/10/30 13:56:31;;;;;;;;;;;25.70;45.50;;;;;;5103787;28;19924;-63
2023/10/30 13:58:58;;;;;;;;;;;25.70;45.20;;;;;;5102676;28;19996;-62
2023/10/30 14:01:26;;;;;;;;;;;25.70;45.30;;;;;;5105487;28;20375;-62
2023/10/30 14:03:53;;;;;;;;;;;25.70;45.20;;;;;;5104378;28;19980;-63
2023/10/30 14:06:20;;;;;;;;;;;25.80;45.10;;;;;;5108223;28;19969;-62
2023/10/30 14:08:48;;;;;;;;;;;25.80;45.00;;;;;;5107777;28;19988;-64
2023/10/30 14:11:15;;;;;;;;;;;25.80;45.00;;;;;;5106475;28;19971;-61
2023/10/30 14:13:42;;;;;;;;;;;25.90;45.30;;;;;;5104665;28;20303;-62
2023/10/30 14:16:09;;;;;;;;;;;25.80;45.00;;;;;;5103476;28;19931;-63
2023/10/30 14:18:36;;;;;;;;;;;25.80;44.90;;;;;;5104559;28;20463;-62
2023/10/30 14:21:07;;;;;;;;;;;25.90;45.00;;;;;;5101663;28;19936;-63
2023/10/30 14:23:35;;;;;;;;;;;25.80;45.00;;;;;;5103241;28;20383;-63